sensor_id;sensor_type;location;lat;lon;timestamp;temperature;humidity
12115;DHT22;6121;49.810;6.418;2023-02-01T00:02:01;6.50;99.90
12115;DHT22;6121;49.810;6.418;2023-02-01T00:04:27;6.50;99.90
12115;DHT22;6121;49.810;6.418;2023-02-01T00:06:53;6.60;99.90
12115;DHT22;6121;49.810;6.418;2023-02-01T00:09:19;6.50;99.90
12115;DHT22;6121;49.810;6.418;2023-02-01T00:11:45;6.50;99.90
12115;DHT22;6121;49.810;6.418;2023-02-01T00:14:11;6.50;99.90
12115;DHT22;6121;49.810;6.418;2023-02-01T00:16:37;6.60;99.90
12115;DHT22;6121;49.810;6.418;2023-02-01T00:19:09;6.50;99.90
12115;DHT22;6121;49.810;6.418;2023-02-01T00:21:35;6.50;99.90
12115;DHT22;6121;49.810;6.418;2023-02-01T00:24:02;6.60;99.90
12115;DHT22;6121;49.810;6.418;2023-02-01T00:26:36;6.60;99.90
12115;DHT22;6121;49.810;6.418;2023-02-01T00:29:05;6.60;99.90
12115;DHT22;6121;49.810;6.418;2023-02-01T00:31:31;6.70;99.90
12115;DHT22;6121;49.810;6.418;2023-02-01T00:33:57;6.70;99.90
12115;DHT22;6121;49.810;6.418;2023-02-01T00:36:23;6.70;99.90
12115;DHT22;6121;49.810;6.418;2023-02-01T00:38:49;6.70;99.90
12115;DHT22;6121;49.810;6.418;2023-02-01T00:41:17;6.70;99.90
12115;DHT22;6121;49.810;6.418;2023-02-01T00:43:43;6.60;99.90
12115;DHT22;6121;49.810;6.418;2023-02-01T00:46:10;6.60;99.90
12115;DHT22;6121;49.810;6.418;2023-02-01T00:48:37;6.60;99.90
12115;DHT22;6121;49.810;6.418;2023-02-01T00:51:06;6.70;99.90
12115;DHT22;6121;49.810;6.418;2023-02-01T00:53:32;6.70;99.90
12115;DHT22;6121;49.810;6.418;2023-02-01T00:55:58;6.70;99.90
12115;DHT22;6121;49.810;6.418;2023-02-01T00:58:25;6.60;99.90
12115;DHT22;6121;49.810;6.418;2023-02-01T01:01:06;6.70;99.90
12115;DHT22;6121;49.810;6.418;2023-02-01T01:03:34;6.70;99.90
12115;DHT22;6121;49.810;6.418;2023-02-01T01:06:02;6.70;99.90
12115;DHT22;6121;49.810;6.418;2023-02-01T01:08:28;6.80;99.90
12115;DHT22;6121;49.810;6.418;2023-02-01T01:10:54;6.80;99.90
12115;DHT22;6121;49.810;6.418;2023-02-01T01:13:19;7.00;99.90
12115;DHT22;6121;49.810;6.418;2023-02-01T01:15:45;6.90;99.90
12115;DHT22;6121;49.810;6.418;2023-02-01T01:18:11;7.20;99.90
12115;DHT22;6121;49.810;6.418;2023-02-01T01:20:39;7.00;99.90
12115;DHT22;6121;49.810;6.418;2023-02-01T01:23:05;6.90;99.90
12115;DHT22;6121;49.810;6.418;2023-02-01T01:25:32;7.00;99.90
12115;DHT22;6121;49.810;6.418;2023-02-01T01:27:58;6.80;99.90
12115;DHT22;6121;49.810;6.418;2023-02-01T01:30:24;6.90;99.90
12115;DHT22;6121;49.810;6.418;2023-02-01T01:32:51;6.80;99.90
12115;DHT22;6121;49.810;6.418;2023-02-01T01:35:17;6.80;99.90
12115;DHT22;6121;49.810;6.418;2023-02-01T01:37:43;6.70;99.90
12115;DHT22;6121;49.810;6.418;2023-02-01T01:40:10;6.90;99.90
12115;DHT22;6121;49.810;6.418;2023-02-01T01:42:43;6.90;99.90
12115;DHT22;6121;49.810;6.418;2023-02-01T01:47:58;7.00;99.90
12115;DHT22;6121;49.810;6.418;2023-02-01T01:50:28;6.90;99.90
12115;DHT22;6121;49.810;6.418;2023-02-01T01:52:56;6.90;99.90
12115;DHT22;6121;49.810;6.418;2023-02-01T01:55:25;6.80;99.90
12115;DHT22;6121;49.810;6.418;2023-02-01T01:58:08;6.90;99.90
12115;DHT22;6121;49.810;6.418;2023-02-01T02:00:35;6.90;99.90
12115;DHT22;6121;49.810;6.418;2023-02-01T02:05:39;6.90;99.90
12115;DHT22;6121;49.810;6.418;2023-02-01T02:08:05;6.80;99.90
12115;DHT22;6121;49.810;6.418;2023-02-01T02:10:32;6.80;99.90
12115;DHT22;6121;49.810;6.418;2023-02-01T02:13:17;6.90;99.90
12115;DHT22;6121;49.810;6.418;2023-02-01T02:15:58;6.90;99.90
12115;DHT22;6121;49.810;6.418;2023-02-01T02:18:48;6.90;99.90
12115;DHT22;6121;49.810;6.418;2023-02-01T02:27:09;7.00;99.90
12115;DHT22;6121;49.810;6.418;2023-02-01T02:30:23;7.10;99.90
12115;DHT22;6121;49.810;6.418;2023-02-01T02:39:06;7.00;99.90
12115;DHT22;6121;49.810;6.418;2023-02-01T02:41:53;7.10;99.90
12115;DHT22;6121;49.810;6.418;2023-02-01T02:51:20;6.90;99.90
12115;DHT22;6121;49.810;6.418;2023-02-01T02:54:16;7.00;99.90
12115;DHT22;6121;49.810;6.418;2023-02-01T02:57:04;7.00;99.90
12115;DHT22;6121;49.810;6.418;2023-02-01T02:59:51;7.10;99.90
12115;DHT22;6121;49.810;6.418;2023-02-01T03:02:37;7.00;99.90
12115;DHT22;6121;49.810;6.418;2023-02-01T03:05:23;7.10;99.90
12115;DHT22;6121;49.810;6.418;2023-02-01T03:10:37;7.00;99.90
12115;DHT22;6121;49.810;6.418;2023-02-01T03:21:33;7.00;99.90
12115;DHT22;6121;49.810;6.418;2023-02-01T03:24:09;7.10;99.90
12115;DHT22;6121;49.810;6.418;2023-02-01T03:26:44;7.10;99.90
12115;DHT22;6121;49.810;6.418;2023-02-01T03:29:17;7.30;99.90
12115;DHT22;6121;49.810;6.418;2023-02-01T03:31:44;7.20;99.90
12115;DHT22;6121;49.810;6.418;2023-02-01T03:34:11;7.20;99.90
12115;DHT22;6121;49.810;6.418;2023-02-01T03:36:48;6.90;99.90
12115;DHT22;6121;49.810;6.418;2023-02-01T03:39:29;7.10;99.90
12115;DHT22;6121;49.810;6.418;2023-02-01T03:41:59;7.20;99.90
12115;DHT22;6121;49.810;6.418;2023-02-01T03:44:34;7.20;99.90
12115;DHT22;6121;49.810;6.418;2023-02-01T03:47:10;7.10;99.90
12115;DHT22;6121;49.810;6.418;2023-02-01T03:49:44;7.00;99.90
12115;DHT22;6121;49.810;6.418;2023-02-01T03:52:17;7.00;99.90
12115;DHT22;6121;49.810;6.418;2023-02-01T03:54:45;6.80;99.90
12115;DHT22;6121;49.810;6.418;2023-02-01T03:57:14;6.70;99.90
12115;DHT22;6121;49.810;6.418;2023-02-01T03:59:43;6.80;99.90
12115;DHT22;6121;49.810;6.418;2023-02-01T04:02:11;6.80;99.90
12115;DHT22;6121;49.810;6.418;2023-02-01T04:04:38;6.90;99.90
12115;DHT22;6121;49.810;6.418;2023-02-01T04:07:04;6.70;99.90
12115;DHT22;6121;49.810;6.418;2023-02-01T04:09:30;6.70;99.90
12115;DHT22;6121;49.810;6.418;2023-02-01T04:11:56;6.60;99.90
12115;DHT22;6121;49.810;6.418;2023-02-01T04:14:22;6.60;99.90
12115;DHT22;6121;49.810;6.418;2023-02-01T04:16:48;6.70;99.90
12115;DHT22;6121;49.810;6.418;2023-02-01T04:19:14;6.70;99.90
12115;DHT22;6121;49.810;6.418;2023-02-01T04:21:40;6.80;99.90
12115;DHT22;6121;49.810;6.418;2023-02-01T04:24:06;6.80;99.90
12115;DHT22;6121;49.810;6.418;2023-02-01T04:26:32;6.80;99.90
12115;DHT22;6121;49.810;6.418;2023-02-01T04:28:58;6.70;99.90
12115;DHT22;6121;49.810;6.418;2023-02-01T04:31:24;6.60;99.90
12115;DHT22;6121;49.810;6.418;2023-02-01T04:33:53;6.60;99.90
12115;DHT22;6121;49.810;6.418;2023-02-01T04:36:21;6.70;99.90
12115;DHT22;6121;49.810;6.418;2023-02-01T04:38:51;6.70;99.90
12115;DHT22;6121;49.810;6.418;2023-02-01T04:41:17;6.80;99.90
12115;DHT22;6121;49.810;6.418;2023-02-01T04:43:48;6.70;99.90
12115;DHT22;6121;49.810;6.418;2023-02-01T04:46:16;6.70;99.90
12115;DHT22;6121;49.810;6.418;2023-02-01T04:48:42;6.60;99.90
12115;DHT22;6121;49.810;6.418;2023-02-01T04:51:08;6.60;99.90
12115;DHT22;6121;49.810;6.418;2023-02-01T04:53:35;6.60;99.90
12115;DHT22;6121;49.810;6.418;2023-02-01T04:56:02;6.60;99.90
12115;DHT22;6121;49.810;6.418;2023-02-01T04:58:27;6.60;99.90
12115;DHT22;6121;49.810;6.418;2023-02-01T05:00:53;6.60;99.90
12115;DHT22;6121;49.810;6.418;2023-02-01T05:03:19;6.50;99.90
12115;DHT22;6121;49.810;6.418;2023-02-01T05:05:47;6.60;99.90
12115;DHT22;6121;49.810;6.418;2023-02-01T05:08:13;6.50;99.90
12115;DHT22;6121;49.810;6.418;2023-02-01T05:10:39;6.60;99.90
12115;DHT22;6121;49.810;6.418;2023-02-01T05:13:05;6.60;99.90
12115;DHT22;6121;49.810;6.418;2023-02-01T05:15:50;6.60;99.90
12115;DHT22;6121;49.810;6.418;2023-02-01T05:18:16;6.60;99.90
12115;DHT22;6121;49.810;6.418;2023-02-01T05:20:42;6.60;99.90
12115;DHT22;6121;49.810;6.418;2023-02-01T05:23:08;6.60;99.90
12115;DHT22;6121;49.810;6.418;2023-02-01T05:25:34;6.60;99.90
12115;DHT22;6121;49.810;6.418;2023-02-01T05:27:59;6.70;99.90
12115;DHT22;6121;49.810;6.418;2023-02-01T05:30:26;6.70;99.90
12115;DHT22;6121;49.810;6.418;2023-02-01T05:32:52;6.80;99.90
12115;DHT22;6121;49.810;6.418;2023-02-01T05:35:19;6.70;99.90
12115;DHT22;6121;49.810;6.418;2023-02-01T05:37:45;6.70;99.90
12115;DHT22;6121;49.810;6.418;2023-02-01T05:40:12;6.70;99.90
12115;DHT22;6121;49.810;6.418;2023-02-01T05:42:38;6.80;99.90
12115;DHT22;6121;49.810;6.418;2023-02-01T05:45:04;6.90;99.90
12115;DHT22;6121;49.810;6.418;2023-02-01T05:47:31;6.80;99.90
12115;DHT22;6121;49.810;6.418;2023-02-01T05:49:57;6.80;99.90
12115;DHT22;6121;49.810;6.418;2023-02-01T05:52:23;6.70;99.90
12115;DHT22;6121;49.810;6.418;2023-02-01T05:54:49;6.60;99.90
12115;DHT22;6121;49.810;6.418;2023-02-01T05:57:15;6.70;99.90
12115;DHT22;6121;49.810;6.418;2023-02-01T05:59:42;6.70;99.90
12115;DHT22;6121;49.810;6.418;2023-02-01T06:02:11;6.80;99.90
12115;DHT22;6121;49.810;6.418;2023-02-01T06:04:37;7.00;99.90
12115;DHT22;6121;49.810;6.418;2023-02-01T06:07:04;7.00;99.90
12115;DHT22;6121;49.810;6.418;2023-02-01T06:09:31;6.90;99.90
12115;DHT22;6121;49.810;6.418;2023-02-01T06:11:56;6.80;99.90
12115;DHT22;6121;49.810;6.418;2023-02-01T06:14:23;6.80;99.90
12115;DHT22;6121;49.810;6.418;2023-02-01T06:16:49;7.00;99.90
12115;DHT22;6121;49.810;6.418;2023-02-01T06:19:15;6.80;99.90
12115;DHT22;6121;49.810;6.418;2023-02-01T06:21:41;6.50;99.90
12115;DHT22;6121;49.810;6.418;2023-02-01T06:24:07;6.50;99.90
12115;DHT22;6121;49.810;6.418;2023-02-01T06:26:33;6.50;99.90
12115;DHT22;6121;49.810;6.418;2023-02-01T06:28:59;6.40;99.90
12115;DHT22;6121;49.810;6.418;2023-02-01T06:31:25;6.50;99.90
12115;DHT22;6121;49.810;6.418;2023-02-01T06:33:52;6.50;99.90
12115;DHT22;6121;49.810;6.418;2023-02-01T06:36:19;6.30;99.90
12115;DHT22;6121;49.810;6.418;2023-02-01T06:38:47;6.20;99.90
12115;DHT22;6121;49.810;6.418;2023-02-01T06:41:13;6.10;99.90
12115;DHT22;6121;49.810;6.418;2023-02-01T06:43:39;6.10;99.90
12115;DHT22;6121;49.810;6.418;2023-02-01T06:46:08;6.10;99.90
12115;DHT22;6121;49.810;6.418;2023-02-01T06:48:35;6.00;99.90
12115;DHT22;6121;49.810;6.418;2023-02-01T06:51:00;5.90;99.90
12115;DHT22;6121;49.810;6.418;2023-02-01T06:53:27;5.80;99.90
12115;DHT22;6121;49.810;6.418;2023-02-01T06:56:02;5.70;99.90
12115;DHT22;6121;49.810;6.418;2023-02-01T06:58:30;5.80;99.90
12115;DHT22;6121;49.810;6.418;2023-02-01T07:00:56;5.90;99.90
12115;DHT22;6121;49.810;6.418;2023-02-01T07:03:23;5.80;99.90
12115;DHT22;6121;49.810;6.418;2023-02-01T07:05:49;5.80;99.90
12115;DHT22;6121;49.810;6.418;2023-02-01T07:08:15;5.60;99.90
12115;DHT22;6121;49.810;6.418;2023-02-01T07:10:40;5.70;99.90
12115;DHT22;6121;49.810;6.418;2023-02-01T07:13:06;5.70;99.90
12115;DHT22;6121;49.810;6.418;2023-02-01T07:15:33;5.70;99.90
12115;DHT22;6121;49.810;6.418;2023-02-01T07:17:58;5.70;99.90
12115;DHT22;6121;49.810;6.418;2023-02-01T07:20:24;5.70;99.90
12115;DHT22;6121;49.810;6.418;2023-02-01T07:22:55;5.70;99.90
12115;DHT22;6121;49.810;6.418;2023-02-01T07:25:22;5.60;99.90
12115;DHT22;6121;49.810;6.418;2023-02-01T07:27:49;5.50;99.90
12115;DHT22;6121;49.810;6.418;2023-02-01T07:30:14;5.60;99.90
12115;DHT22;6121;49.810;6.418;2023-02-01T07:32:40;5.50;99.90
12115;DHT22;6121;49.810;6.418;2023-02-01T07:35:06;5.40;99.90
12115;DHT22;6121;49.810;6.418;2023-02-01T07:37:33;5.40;99.90
12115;DHT22;6121;49.810;6.418;2023-02-01T07:39:58;5.30;99.90
12115;DHT22;6121;49.810;6.418;2023-02-01T07:42:24;5.40;99.90
12115;DHT22;6121;49.810;6.418;2023-02-01T07:44:50;5.40;99.90
12115;DHT22;6121;49.810;6.418;2023-02-01T07:47:16;5.60;99.90
12115;DHT22;6121;49.810;6.418;2023-02-01T07:49:41;5.50;99.90
12115;DHT22;6121;49.810;6.418;2023-02-01T07:52:07;5.40;99.90
12115;DHT22;6121;49.810;6.418;2023-02-01T07:54:33;5.40;99.90
12115;DHT22;6121;49.810;6.418;2023-02-01T07:56:59;5.50;99.90
12115;DHT22;6121;49.810;6.418;2023-02-01T07:59:25;5.60;99.90
12115;DHT22;6121;49.810;6.418;2023-02-01T08:01:51;5.40;99.90
12115;DHT22;6121;49.810;6.418;2023-02-01T08:04:17;5.40;99.90
12115;DHT22;6121;49.810;6.418;2023-02-01T08:06:43;5.40;99.90
12115;DHT22;6121;49.810;6.418;2023-02-01T08:09:08;5.30;99.90
12115;DHT22;6121;49.810;6.418;2023-02-01T08:11:36;5.40;99.90
12115;DHT22;6121;49.810;6.418;2023-02-01T08:14:04;5.30;99.90
12115;DHT22;6121;49.810;6.418;2023-02-01T08:16:30;5.40;99.90
12115;DHT22;6121;49.810;6.418;2023-02-01T08:18:56;5.50;99.90
12115;DHT22;6121;49.810;6.418;2023-02-01T08:21:25;5.50;99.90
12115;DHT22;6121;49.810;6.418;2023-02-01T08:23:53;5.40;99.90
12115;DHT22;6121;49.810;6.418;2023-02-01T08:26:21;5.50;99.90
12115;DHT22;6121;49.810;6.418;2023-02-01T08:28:56;5.40;99.90
12115;DHT22;6121;49.810;6.418;2023-02-01T08:31:24;5.40;99.90
12115;DHT22;6121;49.810;6.418;2023-02-01T08:33:55;5.50;99.90
12115;DHT22;6121;49.810;6.418;2023-02-01T08:36:22;5.50;99.90
12115;DHT22;6121;49.810;6.418;2023-02-01T08:38:47;5.50;99.90
12115;DHT22;6121;49.810;6.418;2023-02-01T08:41:16;5.50;99.90
12115;DHT22;6121;49.810;6.418;2023-02-01T08:43:42;5.60;99.90
12115;DHT22;6121;49.810;6.418;2023-02-01T08:46:09;5.80;99.90
12115;DHT22;6121;49.810;6.418;2023-02-01T08:48:36;5.80;99.90
12115;DHT22;6121;49.810;6.418;2023-02-01T08:51:07;5.90;99.90
12115;DHT22;6121;49.810;6.418;2023-02-01T08:53:33;5.90;99.90
12115;DHT22;6121;49.810;6.418;2023-02-01T08:55:59;5.90;99.90
12115;DHT22;6121;49.810;6.418;2023-02-01T08:58:26;5.90;99.90
12115;DHT22;6121;49.810;6.418;2023-02-01T09:00:52;5.90;99.90
12115;DHT22;6121;49.810;6.418;2023-02-01T09:03:18;6.00;99.90
12115;DHT22;6121;49.810;6.418;2023-02-01T09:05:44;6.10;99.90
12115;DHT22;6121;49.810;6.418;2023-02-01T09:08:11;6.40;99.90
12115;DHT22;6121;49.810;6.418;2023-02-01T09:10:41;6.80;99.90
12115;DHT22;6121;49.810;6.418;2023-02-01T09:13:08;7.10;99.90
12115;DHT22;6121;49.810;6.418;2023-02-01T09:15:34;7.00;99.90
12115;DHT22;6121;49.810;6.418;2023-02-01T09:18:01;7.00;99.90
12115;DHT22;6121;49.810;6.418;2023-02-01T09:20:27;6.80;99.90
12115;DHT22;6121;49.810;6.418;2023-02-01T09:22:55;6.60;99.90
12115;DHT22;6121;49.810;6.418;2023-02-01T09:25:21;6.60;99.90
12115;DHT22;6121;49.810;6.418;2023-02-01T09:27:47;6.70;99.90
12115;DHT22;6121;49.810;6.418;2023-02-01T09:30:13;6.70;99.90
12115;DHT22;6121;49.810;6.418;2023-02-01T09:32:39;6.70;99.90
12115;DHT22;6121;49.810;6.418;2023-02-01T09:35:05;6.60;99.90
12115;DHT22;6121;49.810;6.418;2023-02-01T09:37:31;6.70;99.90
12115;DHT22;6121;49.810;6.418;2023-02-01T09:39:58;6.60;99.90
12115;DHT22;6121;49.810;6.418;2023-02-01T09:47:35;6.60;99.90
12115;DHT22;6121;49.810;6.418;2023-02-01T09:50:14;6.70;99.90
12115;DHT22;6121;49.810;6.418;2023-02-01T09:52:52;6.70;99.90
12115;DHT22;6121;49.810;6.418;2023-02-01T09:55:36;6.80;99.90
12115;DHT22;6121;49.810;6.418;2023-02-01T10:00:52;6.80;99.90
12115;DHT22;6121;49.810;6.418;2023-02-01T10:03:18;6.90;99.90
12115;DHT22;6121;49.810;6.418;2023-02-01T10:06:10;6.90;99.90
12115;DHT22;6121;49.810;6.418;2023-02-01T10:14:46;7.00;99.90
12115;DHT22;6121;49.810;6.418;2023-02-01T10:17:25;7.00;99.90
12115;DHT22;6121;49.810;6.418;2023-02-01T10:23:04;7.10;99.90
12115;DHT22;6121;49.810;6.418;2023-02-01T10:25:59;7.20;99.90
12115;DHT22;6121;49.810;6.418;2023-02-01T10:28:26;7.20;99.90
12115;DHT22;6121;49.810;6.418;2023-02-01T10:30:57;7.10;99.90
12115;DHT22;6121;49.810;6.418;2023-02-01T10:33:33;7.10;99.90
12115;DHT22;6121;49.810;6.418;2023-02-01T10:36:16;7.00;99.90
12115;DHT22;6121;49.810;6.418;2023-02-01T10:38:43;7.10;99.90
12115;DHT22;6121;49.810;6.418;2023-02-01T10:41:16;7.30;99.90
12115;DHT22;6121;49.810;6.418;2023-02-01T10:43:43;7.40;99.90
12115;DHT22;6121;49.810;6.418;2023-02-01T10:46:10;7.40;99.90
12115;DHT22;6121;49.810;6.418;2023-02-01T10:48:37;7.30;99.90
12115;DHT22;6121;49.810;6.418;2023-02-01T10:51:14;7.30;99.90
12115;DHT22;6121;49.810;6.418;2023-02-01T10:53:52;7.40;99.90
12115;DHT22;6121;49.810;6.418;2023-02-01T10:56:23;7.20;99.90
12115;DHT22;6121;49.810;6.418;2023-02-01T10:58:49;7.30;99.90
12115;DHT22;6121;49.810;6.418;2023-02-01T11:01:24;7.30;99.90
12115;DHT22;6121;49.810;6.418;2023-02-01T11:06:39;7.10;99.90
12115;DHT22;6121;49.810;6.418;2023-02-01T11:11:32;7.40;99.90
12115;DHT22;6121;49.810;6.418;2023-02-01T11:14:16;7.50;99.90
12115;DHT22;6121;49.810;6.418;2023-02-01T11:16:47;7.40;99.90
12115;DHT22;6121;49.810;6.418;2023-02-01T11:19:15;7.40;99.90
12115;DHT22;6121;49.810;6.418;2023-02-01T11:21:42;7.40;99.90
12115;DHT22;6121;49.810;6.418;2023-02-01T11:24:23;7.40;99.90
12115;DHT22;6121;49.810;6.418;2023-02-01T11:26:50;7.50;99.90
12115;DHT22;6121;49.810;6.418;2023-02-01T11:29:20;7.40;99.90
12115;DHT22;6121;49.810;6.418;2023-02-01T11:31:50;7.40;99.90
12115;DHT22;6121;49.810;6.418;2023-02-01T11:34:24;7.40;99.90
12115;DHT22;6121;49.810;6.418;2023-02-01T11:36:52;7.40;99.90
12115;DHT22;6121;49.810;6.418;2023-02-01T11:39:30;7.40;99.90
12115;DHT22;6121;49.810;6.418;2023-02-01T11:42:15;7.40;99.90
12115;DHT22;6121;49.810;6.418;2023-02-01T11:44:46;7.40;99.90
12115;DHT22;6121;49.810;6.418;2023-02-01T11:47:27;7.50;99.90
12115;DHT22;6121;49.810;6.418;2023-02-01T11:49:58;7.50;99.90
12115;DHT22;6121;49.810;6.418;2023-02-01T11:52:37;7.40;99.90
12115;DHT22;6121;49.810;6.418;2023-02-01T11:58:10;7.40;99.90
12115;DHT22;6121;49.810;6.418;2023-02-01T12:08:47;7.70;99.90
12115;DHT22;6121;49.810;6.418;2023-02-01T12:14:05;7.80;99.90
12115;DHT22;6121;49.810;6.418;2023-02-01T12:16:52;7.90;99.90
12115;DHT22;6121;49.810;6.418;2023-02-01T12:22:14;8.20;99.90
12115;DHT22;6121;49.810;6.418;2023-02-01T12:38:56;8.10;99.90
12115;DHT22;6121;49.810;6.418;2023-02-01T12:43:53;8.60;99.90
12115;DHT22;6121;49.810;6.418;2023-02-01T12:46:28;8.80;99.90
12115;DHT22;6121;49.810;6.418;2023-02-01T12:49:09;8.70;99.90
12115;DHT22;6121;49.810;6.418;2023-02-01T12:51:39;8.80;99.90
12115;DHT22;6121;49.810;6.418;2023-02-01T12:59:33;8.90;99.90
12115;DHT22;6121;49.810;6.418;2023-02-01T13:08:02;9.60;99.90
12115;DHT22;6121;49.810;6.418;2023-02-01T13:11:02;9.20;99.90
12115;DHT22;6121;49.810;6.418;2023-02-01T13:16:14;9.30;99.90
12115;DHT22;6121;49.810;6.418;2023-02-01T13:18:44;9.10;99.90
12115;DHT22;6121;49.810;6.418;2023-02-01T13:21:24;9.10;99.90
12115;DHT22;6121;49.810;6.418;2023-02-01T13:23:52;9.30;99.90
12115;DHT22;6121;49.810;6.418;2023-02-01T13:26:18;9.10;99.90
12115;DHT22;6121;49.810;6.418;2023-02-01T13:28:55;9.00;99.90
12115;DHT22;6121;49.810;6.418;2023-02-01T13:42:59;8.70;99.90
12115;DHT22;6121;49.810;6.418;2023-02-01T13:45:29;8.70;99.90
12115;DHT22;6121;49.810;6.418;2023-02-01T13:47:59;8.70;99.90
12115;DHT22;6121;49.810;6.418;2023-02-01T13:50:32;8.70;99.90
12115;DHT22;6121;49.810;6.418;2023-02-01T13:53:16;8.70;99.90
12115;DHT22;6121;49.810;6.418;2023-02-01T13:55:49;8.80;99.90
12115;DHT22;6121;49.810;6.418;2023-02-01T13:58:37;9.00;99.90
12115;DHT22;6121;49.810;6.418;2023-02-01T14:04:00;9.00;99.90
12115;DHT22;6121;49.810;6.418;2023-02-01T14:09:13;9.20;99.90
12115;DHT22;6121;49.810;6.418;2023-02-01T14:11:49;9.20;99.90
12115;DHT22;6121;49.810;6.418;2023-02-01T14:19:30;9.00;99.90
12115;DHT22;6121;49.810;6.418;2023-02-01T14:24:54;9.00;99.90
12115;DHT22;6121;49.810;6.418;2023-02-01T14:27:30;9.00;99.90
12115;DHT22;6121;49.810;6.418;2023-02-01T14:30:04;9.10;99.90
12115;DHT22;6121;49.810;6.418;2023-02-01T14:32:36;9.20;99.90
12115;DHT22;6121;49.810;6.418;2023-02-01T14:35:26;9.20;99.90
12115;DHT22;6121;49.810;6.418;2023-02-01T14:38:00;9.20;99.90
12115;DHT22;6121;49.810;6.418;2023-02-01T14:40:32;9.00;99.90
12115;DHT22;6121;49.810;6.418;2023-02-01T14:42:59;9.00;99.90
12115;DHT22;6121;49.810;6.418;2023-02-01T14:50:42;9.00;99.90
12115;DHT22;6121;49.810;6.418;2023-02-01T15:00:52;8.80;99.90
12115;DHT22;6121;49.810;6.418;2023-02-01T15:03:46;8.80;99.90
12115;DHT22;6121;49.810;6.418;2023-02-01T15:08:57;8.90;99.90
12115;DHT22;6121;49.810;6.418;2023-02-01T15:11:25;8.90;99.90
12115;DHT22;6121;49.810;6.418;2023-02-01T15:13:53;8.90;99.90
12115;DHT22;6121;49.810;6.418;2023-02-01T15:16:24;8.90;99.90
12115;DHT22;6121;49.810;6.418;2023-02-01T15:19:08;9.10;99.90
12115;DHT22;6121;49.810;6.418;2023-02-01T15:21:43;9.00;99.90
12115;DHT22;6121;49.810;6.418;2023-02-01T15:26:47;8.70;99.90
12115;DHT22;6121;49.810;6.418;2023-02-01T15:29:13;8.60;99.90
12115;DHT22;6121;49.810;6.418;2023-02-01T15:31:51;8.50;99.90
12115;DHT22;6121;49.810;6.418;2023-02-01T15:34:18;8.40;99.90
12115;DHT22;6121;49.810;6.418;2023-02-01T15:36:45;8.30;99.90
12115;DHT22;6121;49.810;6.418;2023-02-01T15:39:24;8.30;99.90
12115;DHT22;6121;49.810;6.418;2023-02-01T15:41:57;8.20;99.90
12115;DHT22;6121;49.810;6.418;2023-02-01T15:44:40;8.50;99.90
12115;DHT22;6121;49.810;6.418;2023-02-01T15:47:17;8.30;99.90
12115;DHT22;6121;49.810;6.418;2023-02-01T15:49:45;8.30;99.90
12115;DHT22;6121;49.810;6.418;2023-02-01T15:52:25;8.30;99.90
12115;DHT22;6121;49.810;6.418;2023-02-01T15:54:59;8.30;99.90
12115;DHT22;6121;49.810;6.418;2023-02-01T15:57:36;8.40;99.90
12115;DHT22;6121;49.810;6.418;2023-02-01T16:00:30;8.30;99.90
12115;DHT22;6121;49.810;6.418;2023-02-01T16:02:58;8.30;99.90
12115;DHT22;6121;49.810;6.418;2023-02-01T16:05:37;8.40;99.90
12115;DHT22;6121;49.810;6.418;2023-02-01T16:10:45;8.40;99.90
12115;DHT22;6121;49.810;6.418;2023-02-01T16:13:12;8.40;99.90
12115;DHT22;6121;49.810;6.418;2023-02-01T16:15:38;8.20;99.90
12115;DHT22;6121;49.810;6.418;2023-02-01T16:18:06;8.20;99.90
12115;DHT22;6121;49.810;6.418;2023-02-01T16:20:34;8.20;99.90
12115;DHT22;6121;49.810;6.418;2023-02-01T16:23:01;8.10;99.90
12115;DHT22;6121;49.810;6.418;2023-02-01T16:25:27;8.00;99.90
12115;DHT22;6121;49.810;6.418;2023-02-01T16:27:54;8.00;99.90
12115;DHT22;6121;49.810;6.418;2023-02-01T16:30:21;8.00;99.90
12115;DHT22;6121;49.810;6.418;2023-02-01T16:32:52;7.90;99.90
12115;DHT22;6121;49.810;6.418;2023-02-01T16:35:30;8.00;99.90
12115;DHT22;6121;49.810;6.418;2023-02-01T16:38:04;8.10;99.90
12115;DHT22;6121;49.810;6.418;2023-02-01T16:40:37;8.00;99.90
12115;DHT22;6121;49.810;6.418;2023-02-01T16:43:18;7.90;99.90
12115;DHT22;6121;49.810;6.418;2023-02-01T16:45:47;7.70;99.90
12115;DHT22;6121;49.810;6.418;2023-02-01T16:48:32;7.70;99.90
12115;DHT22;6121;49.810;6.418;2023-02-01T16:51:02;7.80;99.90
12115;DHT22;6121;49.810;6.418;2023-02-01T16:53:30;7.80;99.90
12115;DHT22;6121;49.810;6.418;2023-02-01T16:55:56;7.70;99.90
12115;DHT22;6121;49.810;6.418;2023-02-01T16:58:26;7.70;99.90
12115;DHT22;6121;49.810;6.418;2023-02-01T17:00:53;7.50;99.90
12115;DHT22;6121;49.810;6.418;2023-02-01T17:03:20;7.40;99.90
12115;DHT22;6121;49.810;6.418;2023-02-01T17:05:54;7.40;99.90
12115;DHT22;6121;49.810;6.418;2023-02-01T17:08:50;7.60;99.90
12115;DHT22;6121;49.810;6.418;2023-02-01T17:11:16;7.70;99.90
12115;DHT22;6121;49.810;6.418;2023-02-01T17:13:42;7.60;99.90
12115;DHT22;6121;49.810;6.418;2023-02-01T17:16:21;7.80;99.90
12115;DHT22;6121;49.810;6.418;2023-02-01T17:19:02;7.60;99.90
12115;DHT22;6121;49.810;6.418;2023-02-01T17:21:31;7.40;99.90
12115;DHT22;6121;49.810;6.418;2023-02-01T17:24:01;7.40;99.90
12115;DHT22;6121;49.810;6.418;2023-02-01T17:26:27;7.40;99.90
12115;DHT22;6121;49.810;6.418;2023-02-01T17:28:54;7.40;99.90
12115;DHT22;6121;49.810;6.418;2023-02-01T17:31:20;7.40;99.90
12115;DHT22;6121;49.810;6.418;2023-02-01T17:33:47;7.50;99.90
12115;DHT22;6121;49.810;6.418;2023-02-01T17:36:17;7.40;99.90
12115;DHT22;6121;49.810;6.418;2023-02-01T17:38:43;7.40;99.90
12115;DHT22;6121;49.810;6.418;2023-02-01T17:41:13;7.50;99.90
12115;DHT22;6121;49.810;6.418;2023-02-01T17:43:39;7.40;99.90
12115;DHT22;6121;49.810;6.418;2023-02-01T17:46:13;7.40;99.90
12115;DHT22;6121;49.810;6.418;2023-02-01T17:48:40;7.50;99.90
12115;DHT22;6121;49.810;6.418;2023-02-01T17:51:13;7.40;99.90
12115;DHT22;6121;49.810;6.418;2023-02-01T17:53:40;7.40;99.90
12115;DHT22;6121;49.810;6.418;2023-02-01T17:56:16;7.30;99.90
12115;DHT22;6121;49.810;6.418;2023-02-01T17:58:43;7.30;99.90
12115;DHT22;6121;49.810;6.418;2023-02-01T18:01:18;7.30;99.90
12115;DHT22;6121;49.810;6.418;2023-02-01T18:03:44;7.30;99.90
12115;DHT22;6121;49.810;6.418;2023-02-01T18:06:18;7.40;99.90
12115;DHT22;6121;49.810;6.418;2023-02-01T18:08:45;7.30;99.90
12115;DHT22;6121;49.810;6.418;2023-02-01T18:11:20;7.30;99.90
12115;DHT22;6121;49.810;6.418;2023-02-01T18:13:46;7.40;99.90
12115;DHT22;6121;49.810;6.418;2023-02-01T18:16:24;7.40;99.90
12115;DHT22;6121;49.810;6.418;2023-02-01T18:18:51;7.40;99.90
12115;DHT22;6121;49.810;6.418;2023-02-01T18:21:19;7.30;99.90
12115;DHT22;6121;49.810;6.418;2023-02-01T18:23:46;7.40;99.90
12115;DHT22;6121;49.810;6.418;2023-02-01T18:26:14;7.40;99.90
12115;DHT22;6121;49.810;6.418;2023-02-01T18:28:41;7.40;99.90
12115;DHT22;6121;49.810;6.418;2023-02-01T18:31:17;7.40;99.90
12115;DHT22;6121;49.810;6.418;2023-02-01T18:33:45;7.40;99.90
12115;DHT22;6121;49.810;6.418;2023-02-01T18:36:12;7.30;99.90
12115;DHT22;6121;49.810;6.418;2023-02-01T18:38:38;7.30;99.90
12115;DHT22;6121;49.810;6.418;2023-02-01T18:41:04;7.40;99.90
12115;DHT22;6121;49.810;6.418;2023-02-01T18:43:30;7.50;99.90
12115;DHT22;6121;49.810;6.418;2023-02-01T18:45:56;7.50;99.90
12115;DHT22;6121;49.810;6.418;2023-02-01T18:48:22;7.60;99.90
12115;DHT22;6121;49.810;6.418;2023-02-01T18:50:48;7.40;99.90
12115;DHT22;6121;49.810;6.418;2023-02-01T18:53:18;7.40;99.90